sensor_id;sensor_type;location;lat;lon;timestamp;pressure;altitude;pressure_sealevel;temperature;humidity
64862;BME280;62652;42.274;-71.436;2023-04-27T00:00:01;101740.0;;;9.722222222222221;100.0
64862;BME280;62652;42.274;-71.436;2023-04-27T00:01:05;101750.0;;;9.722222222222221;100.0
64862;BME280;62652;42.274;-71.436;2023-04-27T00:02:01;101750.0;;;9.722222222222221;100.0
64862;BME280;62652;42.274;-71.436;2023-04-27T00:03:01;101750.0;;;9.722222222222221;100.0
64862;BME280;62652;42.274;-71.436;2023-04-27T00:04:02;101750.0;;;9.722222222222221;100.0
64862;BME280;62652;42.274;-71.436;2023-04-27T00:05:00;101750.0;;;9.722222222222221;100.0
64862;BME280;62652;42.274;-71.436;2023-04-27T00:06:01;101750.0;;;9.722222222222221;100.0
64862;BME280;62652;42.274;-71.436;2023-04-27T00:07:01;101750.0;;;9.611111111111109;100.0
64862;BME280;62652;42.274;-71.436;2023-04-27T00:08:01;101740.0;;;9.5;100.0
64862;BME280;62652;42.274;-71.436;2023-04-27T00:09:00;101750.0;;;9.611111111111109;100.0
64862;BME280;62652;42.274;-71.436;2023-04-27T00:10:00;101740.0;;;9.5;100.0
64862;BME280;62652;42.274;-71.436;2023-04-27T00:11:01;101750.0;;;9.38888888888889;100.0
64862;BME280;62652;42.274;-71.436;2023-04-27T00:12:00;101750.0;;;9.38888888888889;100.0
64862;BME280;62652;42.274;-71.436;2023-04-27T00:13:01;101740.0;;;9.38888888888889;100.0
64862;BME280;62652;42.274;-71.436;2023-04-27T00:14:01;101750.0;;;9.38888888888889;100.0
64862;BME280;62652;42.274;-71.436;2023-04-27T00:15:01;101740.0;;;9.38888888888889;100.0
64862;BME280;62652;42.274;-71.436;2023-04-27T00:16:01;101740.0;;;9.38888888888889;100.0
64862;BME280;62652;42.274;-71.436;2023-04-27T00:17:00;101740.0;;;9.277777777777779;100.0
64862;BME280;62652;42.274;-71.436;2023-04-27T00:18:00;101740.0;;;9.38888888888889;100.0
64862;BME280;62652;42.274;-71.436;2023-04-27T00:19:01;101740.0;;;9.38888888888889;100.0
64862;BME280;62652;42.274;-71.436;2023-04-27T00:20:00;101740.0;;;9.38888888888889;100.0
64862;BME280;62652;42.274;-71.436;2023-04-27T00:21:01;101740.0;;;9.38888888888889;100.0
64862;BME280;62652;42.274;-71.436;2023-04-27T00:22:01;101740.0;;;9.277777777777779;100.0
64862;BME280;62652;42.274;-71.436;2023-04-27T00:23:01;101740.0;;;9.277777777777779;100.0
64862;BME280;62652;42.274;-71.436;2023-04-27T00:24:00;101740.0;;;9.222222222222221;100.0
64862;BME280;62652;42.274;-71.436;2023-04-27T00:25:01;101730.0;;;9.222222222222221;100.0
64862;BME280;62652;42.274;-71.436;2023-04-27T00:26:01;101730.0;;;9.222222222222221;100.0
64862;BME280;62652;42.274;-71.436;2023-04-27T00:27:00;101730.0;;;9.222222222222221;100.0
64862;BME280;62652;42.274;-71.436;2023-04-27T00:28:00;101730.0;;;9.11111111111111;100.0
64862;BME280;62652;42.274;-71.436;2023-04-27T00:29:00;101720.0;;;9.11111111111111;100.0
64862;BME280;62652;42.274;-71.436;2023-04-27T00:30:00;101720.0;;;9.11111111111111;100.0
64862;BME280;62652;42.274;-71.436;2023-04-27T00:31:00;101720.0;;;9.11111111111111;100.0
64862;BME280;62652;42.274;-71.436;2023-04-27T00:32:01;101720.0;;;9.000000000000002;100.0
64862;BME280;62652;42.274;-71.436;2023-04-27T00:33:01;101720.0;;;9.000000000000002;100.0
64862;BME280;62652;42.274;-71.436;2023-04-27T00:34:01;101730.0;;;9.000000000000002;100.0
64862;BME280;62652;42.274;-71.436;2023-04-27T00:35:00;101730.0;;;8.88888888888889;100.0
64862;BME280;62652;42.274;-71.436;2023-04-27T00:36:01;101730.0;;;8.88888888888889;100.0
64862;BME280;62652;42.274;-71.436;2023-04-27T00:37:01;101730.0;;;8.88888888888889;100.0
64862;BME280;62652;42.274;-71.436;2023-04-27T00:38:00;101730.0;;;8.88888888888889;100.0
64862;BME280;62652;42.274;-71.436;2023-04-27T00:39:02;101740.0;;;8.88888888888889;100.0
64862;BME280;62652;42.274;-71.436;2023-04-27T00:40:03;101740.0;;;8.88888888888889;100.0
64862;BME280;62652;42.274;-71.436;2023-04-27T00:41:01;101730.0;;;8.88888888888889;100.0
64862;BME280;62652;42.274;-71.436;2023-04-27T00:42:01;101730.0;;;8.88888888888889;100.0
64862;BME280;62652;42.274;-71.436;2023-04-27T00:43:01;101730.0;;;8.88888888888889;100.0
64862;BME280;62652;42.274;-71.436;2023-04-27T00:44:01;101730.0;;;8.88888888888889;100.0
64862;BME280;62652;42.274;-71.436;2023-04-27T00:45:01;101730.0;;;8.88888888888889;100.0
64862;BME280;62652;42.274;-71.436;2023-04-27T00:46:01;101740.0;;;8.777777777777777;100.0
64862;BME280;62652;42.274;-71.436;2023-04-27T00:47:01;101740.0;;;8.777777777777777;100.0
64862;BME280;62652;42.274;-71.436;2023-04-27T00:48:00;101740.0;;;8.777777777777777;100.0
64862;BME280;62652;42.274;-71.436;2023-04-27T00:49:01;101740.0;;;8.777777777777777;100.0
64862;BME280;62652;42.274;-71.436;2023-04-27T00:50:01;101730.0;;;8.777777777777777;100.0
64862;BME280;62652;42.274;-71.436;2023-04-27T00:51:01;101730.0;;;8.777777777777777;100.0
64862;BME280;62652;42.274;-71.436;2023-04-27T00:52:01;101730.0;;;8.777777777777777;100.0
64862;BME280;62652;42.274;-71.436;2023-04-27T00:53:01;101730.0;;;8.777777777777777;100.0
64862;BME280;62652;42.274;-71.436;2023-04-27T00:54:01;101730.0;;;8.88888888888889;100.0
64862;BME280;62652;42.274;-71.436;2023-04-27T00:55:02;101730.0;;;8.777777777777777;100.0
64862;BME280;62652;42.274;-71.436;2023-04-27T00:56:01;101730.0;;;8.777777777777777;100.0
64862;BME280;62652;42.274;-71.436;2023-04-27T00:57:02;101730.0;;;8.777777777777777;100.0
64862;BME280;62652;42.274;-71.436;2023-04-27T00:58:01;101730.0;;;8.777777777777777;100.0
64862;BME280;62652;42.274;-71.436;2023-04-27T00:59:00;101720.0;;;8.777777777777777;100.0
64862;BME280;62652;42.274;-71.436;2023-04-27T01:00:01;101720.0;;;8.777777777777777;100.0
64862;BME280;62652;42.274;-71.436;2023-04-27T01:01:00;101720.0;;;8.777777777777777;100.0
64862;BME280;62652;42.274;-71.436;2023-04-27T01:02:01;101720.0;;;8.722222222222223;100.0
64862;BME280;62652;42.274;-71.436;2023-04-27T01:03:01;101720.0;;;8.722222222222223;100.0
64862;BME280;62652;42.274;-71.436;2023-04-27T01:04:01;101730.0;;;8.722222222222223;100.0
64862;BME280;62652;42.274;-71.436;2023-04-27T01:05:01;101730.0;;;8.61111111111111;100.0
64862;BME280;62652;42.274;-71.436;2023-04-27T01:06:01;101730.0;;;8.61111111111111;100.0
64862;BME280;62652;42.274;-71.436;2023-04-27T01:07:00;101730.0;;;8.61111111111111;100.0
64862;BME280;62652;42.274;-71.436;2023-04-27T01:08:01;101730.0;;;8.61111111111111;100.0
64862;BME280;62652;42.274;-71.436;2023-04-27T01:09:01;101730.0;;;8.61111111111111;100.0
64862;BME280;62652;42.274;-71.436;2023-04-27T01:10:00;101730.0;;;8.61111111111111;100.0
64862;BME280;62652;42.274;-71.436;2023-04-27T01:11:00;101740.0;;;8.61111111111111;100.0
64862;BME280;62652;42.274;-71.436;2023-04-27T01:12:01;101730.0;;;8.61111111111111;100.0
64862;BME280;62652;42.274;-71.436;2023-04-27T01:13:01;101730.0;;;8.61111111111111;100.0
64862;BME280;62652;42.274;-71.436;2023-04-27T01:14:03;101740.0;;;8.499999999999998;100.0
64862;BME280;62652;42.274;-71.436;2023-04-27T01:15:01;101740.0;;;8.61111111111111;100.0
64862;BME280;62652;42.274;-71.436;2023-04-27T01:16:00;101730.0;;;8.499999999999998;100.0
64862;BME280;62652;42.274;-71.436;2023-04-27T01:17:00;101730.0;;;8.499999999999998;100.0
64862;BME280;62652;42.274;-71.436;2023-04-27T01:18:01;101740.0;;;8.499999999999998;100.0
64862;BME280;62652;42.274;-71.436;2023-04-27T01:19:01;101740.0;;;8.499999999999998;100.0
64862;BME280;62652;42.274;-71.436;2023-04-27T01:20:01;101740.0;;;8.499999999999998;100.0
64862;BME280;62652;42.274;-71.436;2023-04-27T01:21:00;101740.0;;;8.38888888888889;100.0
64862;BME280;62652;42.274;-71.436;2023-04-27T01:22:00;101740.0;;;8.38888888888889;100.0
64862;BME280;62652;42.274;-71.436;2023-04-27T01:23:01;101740.0;;;8.38888888888889;100.0
64862;BME280;62652;42.274;-71.436;2023-04-27T01:24:03;101750.0;;;8.38888888888889;100.0
64862;BME280;62652;42.274;-71.436;2023-04-27T01:25:00;101740.0;;;8.38888888888889;100.0
64862;BME280;62652;42.274;-71.436;2023-04-27T01:26:01;101740.0;;;8.38888888888889;100.0
64862;BME280;62652;42.274;-71.436;2023-04-27T01:27:01;101740.0;;;8.38888888888889;100.0
64862;BME280;62652;42.274;-71.436;2023-04-27T01:28:00;101750.0;;;8.38888888888889;100.0
64862;BME280;62652;42.274;-71.436;2023-04-27T01:29:00;101750.0;;;8.38888888888889;100.0
64862;BME280;62652;42.274;-71.436;2023-04-27T01:30:01;101750.0;;;8.38888888888889;100.0
64862;BME280;62652;42.274;-71.436;2023-04-27T01:31:01;101750.0;;;8.38888888888889;100.0
64862;BME280;62652;42.274;-71.436;2023-04-27T01:32:01;101750.0;;;8.277777777777779;100.0
64862;BME280;62652;42.274;-71.436;2023-04-27T01:33:00;101750.0;;;8.38888888888889;100.0
64862;BME280;62652;42.274;-71.436;2023-04-27T01:34:01;101750.0;;;8.38888888888889;100.0
64862;BME280;62652;42.274;-71.436;2023-04-27T01:35:01;101760.0;;;8.38888888888889;100.0
64862;BME280;62652;42.274;-71.436;2023-04-27T01:36:00;101760.0;;;8.38888888888889;100.0
64862;BME280;62652;42.274;-71.436;2023-04-27T01:37:00;101760.0;;;8.38888888888889;100.0
64862;BME280;62652;42.274;-71.436;2023-04-27T01:38:01;101760.0;;;8.38888888888889;100.0
64862;BME280;62652;42.274;-71.436;2023-04-27T01:39:00;101760.0;;;8.38888888888889;100.0
64862;BME280;62652;42.274;-71.436;2023-04-27T01:40:00;101760.0;;;8.38888888888889;100.0
64862;BME280;62652;42.274;-71.436;2023-04-27T01:41:03;101760.0;;;8.38888888888889;100.0
64862;BME280;62652;42.274;-71.436;2023-04-27T01:42:01;101760.0;;;8.38888888888889;100.0
64862;BME280;62652;42.274;-71.436;2023-04-27T01:43:00;101760.0;;;8.38888888888889;100.0
64862;BME280;62652;42.274;-71.436;2023-04-27T01:44:01;101760.0;;;8.38888888888889;100.0
64862;BME280;62652;42.274;-71.436;2023-04-27T01:45:00;101760.0;;;8.38888888888889;100.0
64862;BME280;62652;42.274;-71.436;2023-04-27T01:46:04;101760.0;;;8.38888888888889;100.0
64862;BME280;62652;42.274;-71.436;2023-04-27T01:47:00;101760.0;;;8.38888888888889;100.0
64862;BME280;62652;42.274;-71.436;2023-04-27T01:48:00;101760.0;;;8.38888888888889;100.0
64862;BME280;62652;42.274;-71.436;2023-04-27T01:49:00;101760.0;;;8.38888888888889;100.0
64862;BME280;62652;42.274;-71.436;2023-04-27T01:50:01;101760.0;;;8.38888888888889;100.0
64862;BME280;62652;42.274;-71.436;2023-04-27T01:51:01;101760.0;;;8.38888888888889;100.0
64862;BME280;62652;42.274;-71.436;2023-04-27T01:52:00;101760.0;;;8.38888888888889;100.0
64862;BME280;62652;42.274;-71.436;2023-04-27T01:53:01;101760.0;;;8.38888888888889;100.0
64862;BME280;62652;42.274;-71.436;2023-04-27T01:54:00;101750.0;;;8.38888888888889;100.0
64862;BME280;62652;42.274;-71.436;2023-04-27T01:55:00;101760.0;;;8.38888888888889;100.0
64862;BME280;62652;42.274;-71.436;2023-04-27T01:56:00;101760.0;;;8.38888888888889;100.0
64862;BME280;62652;42.274;-71.436;2023-04-27T01:57:01;101760.0;;;8.38888888888889;100.0
64862;BME280;62652;42.274;-71.436;2023-04-27T01:58:01;101760.0;;;8.38888888888889;100.0
64862;BME280;62652;42.274;-71.436;2023-04-27T01:59:01;101760.0;;;8.38888888888889;100.0
64862;BME280;62652;42.274;-71.436;2023-04-27T02:00:00;101760.0;;;8.38888888888889;100.0
64862;BME280;62652;42.274;-71.436;2023-04-27T02:01:01;101760.0;;;8.38888888888889;100.0
64862;BME280;62652;42.274;-71.436;2023-04-27T02:02:00;101760.0;;;8.277777777777779;100.0
64862;BME280;62652;42.274;-71.436;2023-04-27T02:03:00;101750.0;;;8.277777777777779;100.0
64862;BME280;62652;42.274;-71.436;2023-04-27T02:04:01;101750.0;;;8.277777777777779;100.0
64862;BME280;62652;42.274;-71.436;2023-04-27T02:05:00;101750.0;;;8.277777777777779;100.0
64862;BME280;62652;42.274;-71.436;2023-04-27T02:06:01;101750.0;;;8.277777777777779;100.0
64862;BME280;62652;42.274;-71.436;2023-04-27T02:07:01;101750.0;;;8.277777777777779;100.0
64862;BME280;62652;42.274;-71.436;2023-04-27T02:08:00;101740.0;;;8.277777777777779;100.0
64862;BME280;62652;42.274;-71.436;2023-04-27T02:09:00;101750.0;;;8.277777777777779;100.0
64862;BME280;62652;42.274;-71.436;2023-04-27T02:10:01;101740.0;;;8.277777777777779;100.0
64862;BME280;62652;42.274;-71.436;2023-04-27T02:11:01;101750.0;;;8.277777777777779;100.0
64862;BME280;62652;42.274;-71.436;2023-04-27T02:12:01;101740.0;;;8.222222222222221;100.0
64862;BME280;62652;42.274;-71.436;2023-04-27T02:13:01;101750.0;;;8.222222222222221;100.0
64862;BME280;62652;42.274;-71.436;2023-04-27T02:14:00;101750.0;;;8.222222222222221;100.0
64862;BME280;62652;42.274;-71.436;2023-04-27T02:15:01;101740.0;;;8.222222222222221;100.0
64862;BME280;62652;42.274;-71.436;2023-04-27T02:16:01;101740.0;;;8.222222222222221;100.0
64862;BME280;62652;42.274;-71.436;2023-04-27T02:17:00;101740.0;;;8.11111111111111;100.0
64862;BME280;62652;42.274;-71.436;2023-04-27T02:18:02;101740.0;;;8.11111111111111;100.0
64862;BME280;62652;42.274;-71.436;2023-04-27T02:19:01;101740.0;;;8.222222222222221;100.0
64862;BME280;62652;42.274;-71.436;2023-04-27T02:20:00;101740.0;;;8.11111111111111;100.0
64862;BME280;62652;42.274;-71.436;2023-04-27T02:21:06;101740.0;;;8.11111111111111;100.0
64862;BME280;62652;42.274;-71.436;2023-04-27T02:22:00;101740.0;;;8.11111111111111;100.0
64862;BME280;62652;42.274;-71.436;2023-04-27T02:23:01;101740.0;;;8.11111111111111;100.0
64862;BME280;62652;42.274;-71.436;2023-04-27T02:24:00;101730.0;;;8.11111111111111;100.0
64862;BME280;62652;42.274;-71.436;2023-04-27T02:25:01;101730.0;;;8.11111111111111;100.0
64862;BME280;62652;42.274;-71.436;2023-04-27T02:26:01;101740.0;;;8.11111111111111;100.0
64862;BME280;62652;42.274;-71.436;2023-04-27T02:27:01;101740.0;;;8.11111111111111;100.0
64862;BME280;62652;42.274;-71.436;2023-04-27T02:28:00;101740.0;;;8.11111111111111;100.0
64862;BME280;62652;42.274;-71.436;2023-04-27T02:29:00;101740.0;;;8.11111111111111;100.0
64862;BME280;62652;42.274;-71.436;2023-04-27T02:30:03;101740.0;;;8.11111111111111;100.0
64862;BME280;62652;42.274;-71.436;2023-04-27T02:31:00;101740.0;;;8.222222222222221;100.0
64862;BME280;62652;42.274;-71.436;2023-04-27T02:32:00;101740.0;;;8.11111111111111;100.0
64862;BME280;62652;42.274;-71.436;2023-04-27T02:33:00;101740.0;;;8.222222222222221;100.0
64862;BME280;62652;42.274;-71.436;2023-04-27T02:34:00;101740.0;;;8.11111111111111;100.0
64862;BME280;62652;42.274;-71.436;2023-04-27T02:35:01;101740.0;;;8.222222222222221;100.0
64862;BME280;62652;42.274;-71.436;2023-04-27T02:36:00;101740.0;;;8.222222222222221;100.0
64862;BME280;62652;42.274;-71.436;2023-04-27T02:37:01;101740.0;;;8.11111111111111;100.0
64862;BME280;62652;42.274;-71.436;2023-04-27T02:38:00;101740.0;;;8.222222222222221;100.0
64862;BME280;62652;42.274;-71.436;2023-04-27T02:39:00;101740.0;;;8.222222222222221;100.0
64862;BME280;62652;42.274;-71.436;2023-04-27T02:40:01;101750.0;;;8.11111111111111;100.0
64862;BME280;62652;42.274;-71.436;2023-04-27T02:41:01;101750.0;;;8.222222222222221;100.0
64862;BME280;62652;42.274;-71.436;2023-04-27T02:42:00;101750.0;;;8.277777777777779;100.0
64862;BME280;62652;42.274;-71.436;2023-04-27T02:43:00;101740.0;;;8.277777777777779;100.0
64862;BME280;62652;42.274;-71.436;2023-04-27T02:44:01;101750.0;;;8.277777777777779;100.0
64862;BME280;62652;42.274;-71.436;2023-04-27T02:45:01;101740.0;;;8.222222222222221;100.0
64862;BME280;62652;42.274;-71.436;2023-04-27T02:46:01;101740.0;;;8.222222222222221;100.0
64862;BME280;62652;42.274;-71.436;2023-04-27T02:47:00;101740.0;;;8.222222222222221;100.0
64862;BME280;62652;42.274;-71.436;2023-04-27T02:48:01;101740.0;;;8.277777777777779;100.0
64862;BME280;62652;42.274;-71.436;2023-04-27T02:49:00;101740.0;;;8.277777777777779;100.0
64862;BME280;62652;42.274;-71.436;2023-04-27T02:50:01;101740.0;;;8.277777777777779;100.0
64862;BME280;62652;42.274;-71.436;2023-04-27T02:51:02;101740.0;;;8.38888888888889;100.0
64862;BME280;62652;42.274;-71.436;2023-04-27T02:52:01;101740.0;;;8.38888888888889;100.0
64862;BME280;62652;42.274;-71.436;2023-04-27T02:53:01;101750.0;;;8.38888888888889;100.0
64862;BME280;62652;42.274;-71.436;2023-04-27T02:54:01;101740.0;;;8.38888888888889;100.0
64862;BME280;62652;42.274;-71.436;2023-04-27T02:55:01;101740.0;;;8.38888888888889;100.0
64862;BME280;62652;42.274;-71.436;2023-04-27T02:56:01;101740.0;;;8.38888888888889;100.0
64862;BME280;62652;42.274;-71.436;2023-04-27T02:57:01;101750.0;;;8.38888888888889;100.0
64862;BME280;62652;42.274;-71.436;2023-04-27T02:58:00;101750.0;;;8.499999999999998;100.0
64862;BME280;62652;42.274;-71.436;2023-04-27T02:59:01;101740.0;;;8.499999999999998;100.0
64862;BME280;62652;42.274;-71.436;2023-04-27T03:00:01;101740.0;;;8.499999999999998;100.0
64862;BME280;62652;42.274;-71.436;2023-04-27T03:01:00;101740.0;;;8.499999999999998;100.0
64862;BME280;62652;42.274;-71.436;2023-04-27T03:02:00;101740.0;;;8.499999999999998;100.0
64862;BME280;62652;42.274;-71.436;2023-04-27T03:03:01;101740.0;;;8.61111111111111;100.0
64862;BME280;62652;42.274;-71.436;2023-04-27T03:04:01;101740.0;;;8.61111111111111;100.0
64862;BME280;62652;42.274;-71.436;2023-04-27T03:05:00;101740.0;;;8.499999999999998;100.0
64862;BME280;62652;42.274;-71.436;2023-04-27T03:06:00;101740.0;;;8.499999999999998;100.0
64862;BME280;62652;42.274;-71.436;2023-04-27T03:07:00;101740.0;;;8.61111111111111;100.0
64862;BME280;62652;42.274;-71.436;2023-04-27T03:08:01;101730.0;;;8.61111111111111;100.0
64862;BME280;62652;42.274;-71.436;2023-04-27T03:09:01;101730.0;;;8.61111111111111;100.0
64862;BME280;62652;42.274;-71.436;2023-04-27T03:10:01;101740.0;;;8.61111111111111;100.0
64862;BME280;62652;42.274;-71.436;2023-04-27T03:11:00;101740.0;;;8.61111111111111;100.0
64862;BME280;62652;42.274;-71.436;2023-04-27T03:12:00;101740.0;;;8.61111111111111;100.0
64862;BME280;62652;42.274;-71.436;2023-04-27T03:13:01;101740.0;;;8.61111111111111;100.0
64862;BME280;62652;42.274;-71.436;2023-04-27T03:14:01;101740.0;;;8.61111111111111;100.0
64862;BME280;62652;42.274;-71.436;2023-04-27T03:15:01;101740.0;;;8.61111111111111;100.0
64862;BME280;62652;42.274;-71.436;2023-04-27T03:16:01;101740.0;;;8.61111111111111;100.0
64862;BME280;62652;42.274;-71.436;2023-04-27T03:17:01;101740.0;;;8.722222222222223;100.0
64862;BME280;62652;42.274;-71.436;2023-04-27T03:18:00;101740.0;;;8.722222222222223;100.0
64862;BME280;62652;42.274;-71.436;2023-04-27T03:19:01;101740.0;;;8.722222222222223;100.0
64862;BME280;62652;42.274;-71.436;2023-04-27T03:20:00;101740.0;;;8.61111111111111;100.0
64862;BME280;62652;42.274;-71.436;2023-04-27T03:21:06;101740.0;;;8.61111111111111;100.0
64862;BME280;62652;42.274;-71.436;2023-04-27T03:22:00;101740.0;;;8.61111111111111;100.0
64862;BME280;62652;42.274;-71.436;2023-04-27T03:23:00;101740.0;;;8.61111111111111;100.0
64862;BME280;62652;42.274;-71.436;2023-04-27T03:24:01;101740.0;;;8.61111111111111;100.0
64862;BME280;62652;42.274;-71.436;2023-04-27T03:25:01;101740.0;;;8.61111111111111;100.0
64862;BME280;62652;42.274;-71.436;2023-04-27T03:26:04;101730.0;;;8.61111111111111;100.0
64862;BME280;62652;42.274;-71.436;2023-04-27T03:27:01;101740.0;;;8.61111111111111;100.0
64862;BME280;62652;42.274;-71.436;2023-04-27T03:28:00;101730.0;;;8.61111111111111;100.0
64862;BME280;62652;42.274;-71.436;2023-04-27T03:29:00;101740.0;;;8.61111111111111;100.0
64862;BME280;62652;42.274;-71.436;2023-04-27T03:30:00;101730.0;;;8.61111111111111;100.0
64862;BME280;62652;42.274;-71.436;2023-04-27T03:31:04;101740.0;;;8.61111111111111;100.0
64862;BME280;62652;42.274;-71.436;2023-04-27T03:32:02;101740.0;;;8.61111111111111;100.0
64862;BME280;62652;42.274;-71.436;2023-04-27T03:33:00;101740.0;;;8.61111111111111;100.0
64862;BME280;62652;42.274;-71.436;2023-04-27T03:34:00;101740.0;;;8.61111111111111;100.0
64862;BME280;62652;42.274;-71.436;2023-04-27T03:35:01;101740.0;;;8.61111111111111;100.0
64862;BME280;62652;42.274;-71.436;2023-04-27T03:36:01;101740.0;;;8.61111111111111;100.0
64862;BME280;62652;42.274;-71.436;2023-04-27T03:37:01;101730.0;;;8.61111111111111;100.0
64862;BME280;62652;42.274;-71.436;2023-04-27T03:38:00;101730.0;;;8.61111111111111;100.0
64862;BME280;62652;42.274;-71.436;2023-04-27T03:39:00;101730.0;;;8.61111111111111;100.0
64862;BME280;62652;42.274;-71.436;2023-04-27T03:40:00;101730.0;;;8.61111111111111;100.0
64862;BME280;62652;42.274;-71.436;2023-04-27T03:41:01;101730.0;;;8.722222222222223;100.0
64862;BME280;62652;42.274;-71.436;2023-04-27T03:42:00;101730.0;;;8.722222222222223;100.0
64862;BME280;62652;42.274;-71.436;2023-04-27T03:43:01;101730.0;;;8.777777777777777;100.0
64862;BME280;62652;42.274;-71.436;2023-04-27T03:44:00;101730.0;;;8.777777777777777;100.0
64862;BME280;62652;42.274;-71.436;2023-04-27T03:45:01;101730.0;;;8.722222222222223;100.0
64862;BME280;62652;42.274;-71.436;2023-04-27T03:46:00;101730.0;;;8.722222222222223;100.0
64862;BME280;62652;42.274;-71.436;2023-04-27T03:47:01;101730.0;;;8.722222222222223;100.0
64862;BME280;62652;42.274;-71.436;2023-04-27T03:48:00;101730.0;;;8.722222222222223;100.0
64862;BME280;62652;42.274;-71.436;2023-04-27T03:49:01;101730.0;;;8.722222222222223;100.0
64862;BME280;62652;42.274;-71.436;2023-04-27T03:50:01;101730.0;;;8.722222222222223;100.0
64862;BME280;62652;42.274;-71.436;2023-04-27T03:51:01;101720.0;;;8.722222222222223;100.0
64862;BME280;62652;42.274;-71.436;2023-04-27T03:52:01;101730.0;;;8.722222222222223;100.0
64862;BME280;62652;42.274;-71.436;2023-04-27T03:53:00;101720.0;;;8.722222222222223;100.0
64862;BME280;62652;42.274;-71.436;2023-04-27T03:54:01;101720.0;;;8.722222222222223;100.0
64862;BME280;62652;42.274;-71.436;2023-04-27T03:55:00;101730.0;;;8.722222222222223;100.0
64862;BME280;62652;42.274;-71.436;2023-04-27T03:56:02;101730.0;;;8.722222222222223;100.0
64862;BME280;62652;42.274;-71.436;2023-04-27T03:57:00;101730.0;;;8.722222222222223;100.0
64862;BME280;62652;42.274;-71.436;2023-04-27T03:58:00;101730.0;;;8.722222222222223;100.0
64862;BME280;62652;42.274;-71.436;2023-04-27T03:59:00;101730.0;;;8.61111111111111;100.0
64862;BME280;62652;42.274;-71.436;2023-04-27T04:00:01;101730.0;;;8.61111111111111;100.0
64862;BME280;62652;42.274;-71.436;2023-04-27T04:01:00;101720.0;;;8.61111111111111;100.0
64862;BME280;62652;42.274;-71.436;2023-04-27T04:02:00;101720.0;;;8.61111111111111;100.0
64862;BME280;62652;42.274;-71.436;2023-04-27T04:03:00;101720.0;;;8.61111111111111;100.0
64862;BME280;62652;42.274;-71.436;2023-04-27T04:04:01;101720.0;;;8.61111111111111;100.0
64862;BME280;62652;42.274;-71.436;2023-04-27T04:05:01;101720.0;;;8.61111111111111;100.0
64862;BME280;62652;42.274;-71.436;2023-04-27T04:06:01;101720.0;;;8.499999999999998;100.0
64862;BME280;62652;42.274;-71.436;2023-04-27T04:07:00;101720.0;;;8.499999999999998;100.0
64862;BME280;62652;42.274;-71.436;2023-04-27T04:08:01;101720.0;;;8.499999999999998;100.0
64862;BME280;62652;42.274;-71.436;2023-04-27T04:09:01;101710.0;;;8.38888888888889;100.0
64862;BME280;62652;42.274;-71.436;2023-04-27T04:10:01;101720.0;;;8.38888888888889;100.0
64862;BME280;62652;42.274;-71.436;2023-04-27T04:11:00;101720.0;;;8.38888888888889;100.0
64862;BME280;62652;42.274;-71.436;2023-04-27T04:12:01;101710.0;;;8.38888888888889;100.0
64862;BME280;62652;42.274;-71.436;2023-04-27T04:13:01;101720.0;;;8.38888888888889;100.0
64862;BME280;62652;42.274;-71.436;2023-04-27T04:14:01;101710.0;;;8.38888888888889;100.0
64862;BME280;62652;42.274;-71.436;2023-04-27T04:15:01;101710.0;;;8.38888888888889;100.0
64862;BME280;62652;42.274;-71.436;2023-04-27T04:16:04;101720.0;;;8.38888888888889;100.0
64862;BME280;62652;42.274;-71.436;2023-04-27T04:17:00;101710.0;;;8.38888888888889;100.0
64862;BME280;62652;42.274;-71.436;2023-04-27T04:18:00;101710.0;;;8.38888888888889;100.0
64862;BME280;62652;42.274;-71.436;2023-04-27T04:19:00;101710.0;;;8.38888888888889;100.0
64862;BME280;62652;42.274;-71.436;2023-04-27T04:20:01;101710.0;;;8.38888888888889;100.0
64862;BME280;62652;42.274;-71.436;2023-04-27T04:21:01;101710.0;;;8.38888888888889;100.0
64862;BME280;62652;42.274;-71.436;2023-04-27T04:22:01;101710.0;;;8.38888888888889;100.0
64862;BME280;62652;42.274;-71.436;2023-04-27T04:23:00;101710.0;;;8.277777777777779;100.0
64862;BME280;62652;42.274;-71.436;2023-04-27T04:24:00;101710.0;;;8.277777777777779;100.0
64862;BME280;62652;42.274;-71.436;2023-04-27T04:25:00;101710.0;;;8.277777777777779;100.0
64862;BME280;62652;42.274;-71.436;2023-04-27T04:26:00;101710.0;;;8.277777777777779;100.0
64862;BME280;62652;42.274;-71.436;2023-04-27T04:27:01;101710.0;;;8.277777777777779;100.0
64862;BME280;62652;42.274;-71.436;2023-04-27T04:28:01;101710.0;;;8.277777777777779;100.0
64862;BME280;62652;42.274;-71.436;2023-04-27T04:29:00;101710.0;;;8.222222222222221;100.0